createdAt,value
2023-02-23T12:34:40.080Z,60.07
2023-02-23T12:37:28.329Z,59.72
2023-02-23T12:40:05.755Z,59.77
2023-02-23T12:42:46.080Z,59.97
2023-02-23T12:45:24.782Z,59.66
2023-02-23T12:48:29.979Z,59.69
2023-02-23T12:51:02.925Z,59.56
2023-02-23T12:53:42.562Z,59.59
2023-02-23T12:56:19.787Z,59.35
2023-02-23T12:59:28.450Z,59.24
2023-02-23T13:02:08.683Z,58.97
2023-02-23T13:04:48.076Z,58.87
2023-02-23T13:09:18.695Z,58.62
2023-02-23T13:12:07.890Z,58.59
2023-02-23T13:14:46.497Z,58.19
2023-02-23T13:17:39.944Z,58.30
2023-02-23T13:20:22.998Z,58.04
2023-02-23T13:23:11.577Z,58.02
2023-02-23T13:26:06.221Z,58.33
2023-02-23T13:28:51.189Z,57.91
2023-02-23T13:31:40.432Z,57.92
2023-02-23T13:34:14.265Z,57.61
2023-02-23T13:36:43.133Z,57.18
2023-02-23T13:39:53.260Z,57.50
2023-02-23T13:42:33.366Z,57.47
2023-02-23T13:45:21.995Z,57.44
2023-02-23T13:48:15.418Z,57.13
2023-02-23T13:50:47.613Z,57.08
2023-02-23T13:53:37.490Z,57.37
2023-02-23T13:56:18.463Z,57.29
2023-02-23T13:59:09.714Z,56.69
2023-02-23T14:01:49.088Z,55.22
2023-02-23T14:04:28.043Z,54.42
2023-02-23T14:07:31.012Z,53.74
2023-02-23T14:10:01.303Z,53.28
2023-02-23T14:12:40.077Z,52.98
2023-02-23T14:15:38.778Z,52.69
2023-02-23T14:18:19.565Z,52.43
2023-02-23T14:21:10.906Z,52.11
2023-02-23T14:24:03.401Z,52.17
2023-02-23T14:26:38.038Z,52.27
2023-02-23T14:29:32.111Z,52.10
2023-02-23T14:32:03.859Z,52.34
2023-02-23T14:34:52.264Z,52.63
2023-02-23T14:37:41.266Z,52.73
2023-02-23T14:40:22.761Z,52.96
2023-02-23T14:42:53.905Z,53.21
2023-02-23T14:45:34.322Z,53.48
2023-02-23T14:48:10.158Z,53.47
2023-02-23T14:50:39.368Z,53.82
2023-02-23T14:53:21.657Z,54.14
2023-02-23T14:55:50.350Z,54.41
2023-02-23T14:58:37.513Z,54.56
2023-02-23T15:01:09.096Z,54.66
2023-02-23T15:03:40.500Z,55.05
2023-02-23T15:06:10.246Z,54.97
2023-02-23T15:08:41.260Z,55.10
2023-02-23T15:11:13.896Z,55.26
2023-02-23T15:13:50.065Z,55.17
2023-02-23T15:16:32.337Z,55.38
2023-02-23T15:19:01.794Z,55.49
2023-02-23T15:21:35.998Z,55.53
2023-02-23T15:24:11.345Z,55.60
2023-02-23T15:26:41.109Z,55.84
2023-02-23T15:29:20.677Z,56.07
2023-02-23T15:31:52.844Z,56.29
2023-02-23T15:34:25.186Z,56.53
2023-02-23T15:37:03.558Z,56.70
2023-02-23T15:39:40.177Z,56.67
2023-02-23T15:42:10.778Z,56.79
2023-02-23T15:44:44.916Z,56.98
2023-02-23T15:47:22.205Z,57.21
2023-02-23T15:49:51.217Z,57.40
2023-02-23T15:52:26.580Z,57.53
2023-02-23T15:55:00.770Z,57.69
2023-02-23T15:57:43.982Z,58.04
2023-02-23T16:00:33.110Z,58.13
2023-02-23T16:03:03.906Z,58.48
2023-02-23T16:05:46.466Z,58.66
2023-02-23T16:08:23.212Z,58.74
2023-02-23T16:11:03.320Z,58.81
2023-02-23T16:13:34.647Z,59.10
2023-02-23T16:16:08.910Z,59.41
2023-02-23T16:18:41.562Z,59.72
2023-02-23T16:21:17.180Z,59.98
2023-02-23T16:23:48.043Z,60.29
2023-02-23T16:26:29.069Z,60.58
2023-02-23T16:28:59.913Z,60.86
2023-02-23T16:31:45.383Z,61.03
2023-02-23T16:34:36.914Z,61.34
2023-02-23T16:37:15.908Z,61.72
2023-02-23T16:39:44.349Z,62.03
2023-02-23T16:42:25.494Z,62.27
2023-02-23T16:44:53.922Z,62.91
2023-02-23T16:47:22.473Z,63.15
2023-02-23T16:49:51.290Z,63.56
2023-02-23T16:52:22.522Z,63.97
2023-02-23T16:54:55.325Z,64.20
2023-02-23T16:57:25.386Z,64.40
2023-02-23T16:59:53.618Z,64.60
2023-02-23T17:02:23.444Z,64.76
2023-02-23T17:04:52.200Z,65.09
2023-02-23T17:07:22.806Z,65.21
2023-02-23T17:09:52.218Z,65.39
2023-02-23T17:12:23.018Z,65.44
2023-02-23T17:14:51.906Z,65.14
2023-02-23T17:17:20.280Z,64.94
2023-02-23T17:19:48.438Z,64.98
2023-02-23T17:22:16.582Z,65.02
2023-02-23T17:24:47.568Z,65.17
2023-02-23T17:27:15.926Z,65.30
2023-02-23T17:29:45.759Z,65.69
2023-02-23T17:32:14.359Z,65.94
2023-02-23T17:34:45.786Z,66.21
2023-02-23T17:37:14.461Z,66.24
2023-02-23T17:39:42.652Z,66.25
2023-02-23T17:42:10.846Z,66.20
2023-02-23T17:44:39.145Z,66.15
2023-02-23T17:47:07.879Z,66.12
2023-02-23T17:49:36.142Z,66.15
2023-02-23T17:52:04.537Z,66.24
2023-02-23T17:54:33.045Z,66.35
2023-02-23T17:57:02.203Z,66.58
2023-02-23T17:59:30.413Z,66.67
2023-02-23T18:01:59.595Z,67.08
2023-02-23T18:04:28.127Z,67.51
2023-02-23T18:06:57.898Z,67.77
2023-02-23T18:09:27.439Z,68.20
2023-02-23T18:12:00.384Z,68.44
2023-02-23T18:14:29.743Z,68.75
2023-02-23T18:16:58.064Z,69.20
2023-02-23T18:19:26.319Z,69.82
2023-02-23T18:21:56.385Z,70.07
2023-02-23T18:24:25.553Z,70.37
2023-02-23T18:27:00.794Z,70.58
2023-02-23T18:29:30.602Z,70.63
2023-02-23T18:32:00.281Z,70.70
2023-02-23T18:34:29.307Z,70.86
2023-02-23T18:37:02.543Z,71.20
2023-02-23T18:39:31.828Z,71.61
2023-02-23T18:42:00.671Z,71.84
2023-02-23T18:44:29.421Z,72.18
2023-02-23T18:46:57.996Z,72.41
2023-02-23T18:49:26.600Z,72.94
2023-02-23T18:51:56.184Z,73.41
2023-02-23T18:54:26.376Z,73.68
2023-02-23T18:56:55.943Z,74.10
2023-02-23T18:59:24.665Z,74.38
2023-02-23T19:01:52.925Z,74.62
2023-02-23T19:04:21.307Z,74.75
2023-02-23T19:06:50.182Z,74.82
2023-02-23T19:09:19.814Z,74.96
2023-02-23T19:11:50.932Z,75.16
2023-02-23T19:14:22.041Z,75.20
2023-02-23T19:16:52.451Z,74.85
2023-02-23T19:19:21.015Z,74.59
2023-02-23T19:21:53.363Z,74.25
2023-02-23T19:24:21.781Z,73.73
2023-02-23T19:26:50.251Z,73.30
2023-02-23T19:29:18.897Z,72.72
2023-02-23T19:31:47.809Z,72.19
2023-02-23T19:34:16.804Z,71.66
2023-02-23T19:36:47.427Z,71.33
2023-02-23T19:39:16.490Z,70.95
2023-02-23T19:41:47.240Z,70.61
2023-02-23T19:44:17.618Z,70.49
2023-02-23T19:46:45.916Z,70.15
2023-02-23T19:49:14.269Z,69.83
2023-02-23T19:51:44.348Z,69.75
2023-02-23T19:54:12.627Z,69.69
2023-02-23T19:56:41.146Z,69.49
2023-02-23T19:59:10.603Z,69.51
2023-02-23T20:01:39.139Z,69.36
2023-02-23T20:04:09.804Z,69.43
2023-02-23T20:06:47.345Z,69.40
2023-02-23T20:09:15.746Z,69.32
2023-02-23T20:11:49.496Z,69.22
2023-02-23T20:14:17.913Z,69.15
2023-02-23T20:16:46.380Z,69.11
2023-02-23T20:19:14.717Z,69.00
2023-02-23T20:21:43.840Z,68.81
2023-02-23T20:24:13.163Z,68.81
2023-02-23T20:26:42.838Z,68.63
2023-02-23T20:29:17.229Z,68.54
2023-02-23T20:31:51.018Z,68.47
2023-02-23T20:34:22.898Z,68.49
2023-02-23T20:36:54.080Z,68.35
2023-02-23T20:39:27.122Z,68.46
2023-02-23T20:41:56.833Z,68.38
2023-02-23T20:44:25.333Z,68.45
2023-02-23T20:46:53.962Z,68.40
2023-02-23T20:49:23.142Z,68.49
2023-02-23T20:51:52.118Z,68.58
2023-02-23T20:54:21.150Z,68.40
2023-02-23T20:56:59.133Z,68.34
2023-02-23T20:59:31.039Z,68.44
2023-02-23T21:02:02.400Z,68.39
2023-02-23T21:04:30.898Z,68.59
2023-02-23T21:06:59.846Z,68.94
2023-02-23T21:09:28.190Z,69.06
2023-02-23T21:11:56.777Z,69.08
2023-02-23T21:14:27.361Z,69.07
2023-02-23T21:16:55.479Z,68.83
2023-02-23T21:19:24.566Z,68.89
2023-02-23T21:21:58.366Z,69.04
2023-02-23T21:24:26.875Z,69.15
2023-02-23T21:26:55.078Z,69.03
2023-02-23T21:29:24.511Z,68.96
2023-02-23T21:31:53.054Z,68.90
2023-02-23T21:34:21.692Z,68.95
2023-02-23T21:36:51.609Z,68.87
2023-02-23T21:39:21.851Z,68.63
2023-02-23T21:41:50.254Z,68.77
2023-02-23T21:44:18.593Z,68.95
2023-02-23T21:46:48.224Z,69.10
2023-02-23T21:49:16.766Z,69.04
2023-02-23T21:51:45.087Z,68.96
2023-02-23T21:54:13.324Z,69.04
2023-02-23T21:56:41.548Z,69.07
2023-02-23T21:59:10.794Z,69.21
2023-02-23T22:01:39.509Z,68.92
2023-02-23T22:04:08.588Z,68.97
2023-02-23T22:06:40.087Z,68.96
2023-02-23T22:09:11.826Z,68.88
2023-02-23T22:11:46.886Z,68.81
2023-02-23T22:14:17.109Z,69.05
2023-02-23T22:16:46.061Z,68.96
2023-02-23T22:19:14.875Z,69.03
2023-02-23T22:21:43.307Z,69.07
2023-02-23T22:24:12.721Z,68.80
2023-02-23T22:26:42.551Z,68.78
2023-02-23T22:29:11.380Z,69.03
2023-02-23T22:31:42.332Z,68.83
2023-02-23T22:34:10.727Z,68.73
2023-02-23T22:36:38.963Z,68.95
2023-02-23T22:39:09.740Z,68.70
2023-02-23T22:41:43.941Z,68.71
2023-02-23T22:44:13.292Z,68.80
2023-02-23T22:46:41.834Z,68.97
2023-02-23T22:49:14.865Z,69.16
2023-02-23T22:51:43.859Z,69.37
2023-02-23T22:54:13.497Z,69.37
2023-02-23T22:56:42.567Z,69.69
2023-02-23T22:59:10.931Z,70.13
2023-02-23T23:01:39.252Z,70.07
2023-02-23T23:04:10.915Z,70.31
2023-02-23T23:06:40.926Z,70.46
2023-02-23T23:09:11.879Z,70.38
2023-02-23T23:11:41.896Z,70.52
2023-02-23T23:14:19.391Z,70.68
2023-02-23T23:16:48.264Z,70.79
2023-02-23T23:19:24.500Z,71.35
2023-02-23T23:21:57.394Z,71.60
2023-02-23T23:24:27.749Z,71.73
2023-02-23T23:26:56.213Z,71.97
2023-02-23T23:29:25.811Z,72.16
2023-02-23T23:31:57.530Z,72.01
2023-02-23T23:34:25.934Z,72.15
2023-02-23T23:36:57.935Z,72.37
2023-02-23T23:39:26.408Z,72.40
2023-02-23T23:41:54.778Z,72.36
2023-02-23T23:44:24.095Z,72.48
2023-02-23T23:46:53.117Z,72.90
2023-02-23T23:49:25.931Z,73.23
2023-02-23T23:51:58.291Z,73.30
2023-02-23T23:54:31.995Z,73.49
2023-02-23T23:57:07.102Z,73.44
2023-02-23T23:59:35.571Z,73.87
